Pagina principale
METAR-TAF:

METAR-TAF

Aeroporti :

Aeroporto di Brescia-Ghedi

Brescia Ghedi, Italia

latitudine: 45-25N, longitudine: 010-17E, altezza: 102 m

Osservazione

Il bollettino è stato emesso 34 minuti fa, alle 15:55 UTC
Vento 3 kt da ovest/sud-ovest
Temperature 24°C
Umidità 50%
Pressione 997 hPa
Visibilità 10 km o più
Poco nuvoloso ad un'altezza di 3000 ft

METAR: LIPL 051555Z 25003KT 9999 FEW030 24/13 Q0997 RMK FEW VIS MIN 9999 WIND THR31 24004KT WIND THR13 23003KT BLU

Ora: 18:29 (16:29 UTC)

Previsione

Il bollettino è stato emesso 8 ore e 29 minuti fa, alle 08:00 UTC
Previsione valida dal 05 alle 09 UTC al 05 alle 18 UTC
Vento 5 kt da ovest
Visibilità 10 km o più
Poco nuvoloso ad un'altezza di 3000 ft
Nubi sparse ad un'altezza di 8000 ft

TAF: LIPL 050800Z 0509/0518 27005KT 9999 FEW030 SCT080

Osservazioni e previsioni meteorologiche di più di 4000 aeroporti (messaggi METAR e TAF).

Le stazioni disponibili sono rappresentate dai dischi gialli e rossi sulla carta.

Puntare il mouse per vedere il nome della stazione.

Clicca sopra per visualizzare le osservazioni e previsioni meteorologiche.

Per cambiare la mappa : fare clic sui pulsanti verdi con una croce nera per ingrandire, il pulsante verde con un trattino per diminuire, o sulla freccia verde per le mappe adiacenti.


METAR-TAF: